Time;durP1;ratioP1;P1;durP2;ratioP2;P2;SDS_P1;SDS_P2;PMS_P1;PMS_P2;Temp;Humidity;BMP_temperature;BMP_pressure;BME280_temperature;BME280_humidity;BME280_pressure;Samples;Min_cycle;Max_cycle;Signal;HPM_P1;HPM_P2
2021/11/16 00:00:51;;;;;;;9.40;5.65;;;;;;;-0.18;75.52;101582.48;1718753;81;20884;-73
2021/11/16 00:03:20;;;;;;;11.43;6.40;;;;;;;-0.22;74.89;101587.95;1724647;82;21443;-74
2021/11/16 00:05:49;;;;;;;11.12;6.15;;;;;;;-0.30;74.45;101584.04;1730824;82;20855;-71
2021/11/16 00:08:23;;;;;;;11.15;5.97;;;;;;;-0.38;74.60;101588.22;1698268;84;21037;-70
2021/11/16 00:10:51;;;;;;;8.50;5.25;;;;;;;-0.45;74.51;101589.51;1694402;84;21212;-70
2021/11/16 00:13:25;;;;;;;14.30;7.15;;;;;;;-0.48;74.76;101589.90;1727262;82;21019;-70
2021/11/16 00:16:00;;;;;;;13.35;6.72;;;;;;;-0.49;74.75;101589.58;1719293;83;20935;-70
2021/11/16 00:18:31;;;;;;;9.60;5.50;;;;;;;-0.51;74.06;101589.45;1725565;81;20966;-71
2021/11/16 00:21:03;;;;;;;11.10;5.72;;;;;;;-0.56;74.06;101598.63;1717099;82;20895;-71
2021/11/16 00:23:37;;;;;;;13.08;6.50;;;;;;;-0.59;74.04;101599.05;1722053;81;21134;-71
2021/11/16 00:26:12;;;;;;;10.85;6.15;;;;;;;-0.61;74.06;101593.84;1726469;82;20899;-70
2021/11/16 00:28:43;;;;;;;13.60;6.35;;;;;;;-0.62;74.21;101588.12;1710301;83;21004;-71
2021/11/16 00:31:12;;;;;;;10.75;5.47;;;;;;;-0.61;74.17;101591.15;1712120;83;21556;-70
2021/11/16 00:33:43;;;;;;;11.70;7.03;;;;;;;-0.64;74.41;101584.79;1701024;83;20836;-70
2021/11/16 00:36:14;;;;;;;13.03;7.13;;;;;;;-0.66;74.35;101586.84;1703930;83;21074;-70
2021/11/16 00:38:42;;;;;;;12.03;6.15;;;;;;;-0.67;74.29;101584.66;1695801;84;21490;-70
2021/11/16 00:41:15;;;;;;;10.72;5.95;;;;;;;-0.69;74.29;101585.36;1721722;83;20895;-70
2021/11/16 00:43:49;;;;;;;11.75;6.03;;;;;;;-0.68;75.82;101586.20;1698701;83;20951;-71
2021/11/16 00:46:21;;;;;;;9.75;5.37;;;;;;;-0.68;75.06;101583.50;1693551;84;20903;-71
2021/11/16 00:48:54;;;;;;;14.15;6.17;;;;;;;-0.67;74.93;101571.17;1710147;82;21150;-70
2021/11/16 00:51:26;;;;;;;10.68;5.72;;;;;;;-0.67;74.36;101575.73;1729638;82;21427;-71
2021/11/16 00:53:54;;;;;;;11.28;6.05;;;;;;;-0.72;74.53;101580.88;1728734;82;20933;-71
2021/11/16 00:56:24;;;;;;;12.80;5.97;;;;;;;-0.77;74.37;101572.00;1725451;82;20942;-72
2021/11/16 00:58:57;;;;;;;10.03;6.30;;;;;;;-0.80;74.39;101573.73;1699182;84;20994;-71
2021/11/16 01:01:29;;;;;;;16.62;7.40;;;;;;;-0.81;74.58;101579.32;1698688;84;21197;-72
2021/11/16 01:04:00;;;;;;;16.70;6.62;;;;;;;-0.81;74.72;101573.93;1723606;82;20907;-72
2021/11/16 01:06:32;;;;;;;9.90;5.40;;;;;;;-0.81;75.10;101579.32;1715761;82;20883;-72
2021/11/16 01:08:59;;;;;;;10.65;5.90;;;;;;;-0.79;75.23;101570.02;1670878;84;21011;-72
2021/11/16 01:11:35;;;;;;;10.18;5.28;;;;;;;-0.76;75.22;101577.72;1697602;84;21451;-72
2021/11/16 01:14:11;;;;;;;11.28;5.42;;;;;;;-0.75;75.03;101572.65;1696199;84;21112;-72
2021/11/16 01:16:46;;;;;;;11.78;6.50;;;;;;;-0.74;75.01;101578.87;1697568;84;20963;-74
2021/11/16 01:19:15;;;;;;;11.15;5.37;;;;;;;-0.73;75.10;101573.29;1696659;84;21012;-72
2021/11/16 01:21:47;;;;;;;9.00;5.08;;;;;;;-0.71;75.09;101573.94;1695944;84;21541;-71
2021/11/16 01:24:21;;;;;;;10.80;5.83;;;;;;;-0.71;74.83;101571.75;1693548;83;20951;-71
2021/11/16 01:26:50;;;;;;;14.28;6.25;;;;;;;-0.72;74.70;101567.38;1721416;83;21090;-71
2021/11/16 01:29:23;;;;;;;11.97;6.45;;;;;;;-0.74;74.83;101564.88;1696697;84;21435;-71
2021/11/16 01:32:04;;;;;;;14.53;6.37;;;;;;;-0.72;74.71;101567.38;1732016;82;20942;-71
2021/11/16 01:34:32;;;;;;;17.48;6.45;;;;;;;-0.70;75.04;101561.28;1730600;82;20887;-70
2021/11/16 01:37:00;;;;;;;10.10;5.97;;;;;;;-0.66;74.77;101566.61;1732494;82;20891;-71
2021/11/16 01:39:33;;;;;;;11.60;6.83;;;;;;;-0.64;75.03;101560.52;1732426;82;21213;-70
2021/11/16 01:42:04;;;;;;;13.58;6.25;;;;;;;-0.63;74.81;101562.19;1698761;84;20946;-70
2021/11/16 01:44:35;;;;;;;11.57;6.20;;;;;;;-0.64;74.52;101559.16;1668910;84;20848;-71
2021/11/16 01:47:03;;;;;;;12.25;6.80;;;;;;;-0.68;74.33;101560.06;1693130;84;20864;-71
2021/11/16 01:49:38;;;;;;;14.10;6.75;;;;;;;-0.72;74.52;101564.17;1668095;84;20903;-70
2021/11/16 01:52:14;;;;;;;15.48;7.47;;;;;;;-0.75;74.19;101551.08;1697334;84;21254;-71
2021/11/16 01:54:41;;;;;;;8.68;5.83;;;;;;;-0.75;74.28;101559.16;1693996;84;20912;-71
2021/11/16 01:57:12;;;;;;;15.65;8.10;;;;;;;-0.75;74.32;101555.63;1722641;82;20927;-71
2021/11/16 01:59:43;;;;;;;11.28;6.60;;;;;;;-0.77;74.48;101554.98;1695926;84;20935;-71
2021/11/16 02:02:14;;;;;;;18.17;7.67;;;;;;;-0.74;74.31;101554.61;1695809;84;20923;-70
2021/11/16 02:04:51;;;;;;;15.08;7.70;;;;;;;-0.75;74.38;101544.33;1697366;84;27002;-71
2021/11/16 02:07:21;;;;;;;13.25;7.33;;;;;;;-0.74;74.48;101544.66;1729713;81;20919;-70
2021/11/16 02:09:58;;;;;;;13.48;6.87;;;;;;;-0.71;74.26;101545.61;1728256;82;21392;-69
2021/11/16 02:12:34;;;;;;;9.23;5.15;;;;;;;-0.70;74.24;101543.75;1698802;82;21408;-70
2021/11/16 02:15:02;;;;;;;13.35;7.58;;;;;;;-0.70;74.48;101541.89;1730396;81;21442;-71
2021/11/16 02:17:34;;;;;;;12.88;6.75;;;;;;;-0.67;74.49;101530.72;1724863;82;21146;-71
2021/11/16 02:20:07;;;;;;;18.40;7.15;;;;;;;-0.62;74.41;101533.34;1723516;83;20899;-71
2021/11/16 02:22:40;;;;;;;13.32;6.37;;;;;;;-0.61;74.29;101527.75;1722808;81;21455;-71
2021/11/16 02:25:15;;;;;;;14.35;7.30;;;;;;;-0.62;74.86;101535.53;1724924;81;20900;-72
2021/11/16 02:27:49;;;;;;;12.05;6.33;;;;;;;-0.62;74.86;101527.95;1723850;82;20872;-71
2021/11/16 02:30:26;;;;;;;12.10;6.12;;;;;;;-0.62;74.99;101527.95;1719270;83;21222;-71
2021/11/16 02:32:56;;;;;;;19.20;6.53;;;;;;;-0.66;74.53;101519.41;1693660;84;20935;-73
2021/11/16 02:35:33;;;;;;;10.40;6.08;;;;;;;-0.69;74.66;101530.08;1695294;84;20872;-73
2021/11/16 02:38:03;;;;;;;12.33;6.67;;;;;;;-0.73;74.47;101529.30;1723729;82;21017;-71
2021/11/16 02:40:39;;;;;;;9.78;5.78;;;;;;;-0.77;74.48;101526.67;1727037;82;20915;-70
2021/11/16 02:43:09;;;;;;;13.75;6.78;;;;;;;-0.82;74.62;101525.91;1696999;84;21206;-71
2021/11/16 02:45:43;;;;;;;11.22;5.62;;;;;;;-0.83;74.67;101520.19;1723078;82;20927;-71
2021/11/16 02:48:16;;;;;;;13.50;6.10;;;;;;;-0.81;74.84;101517.30;1698881;84;20939;-73
2021/11/16 02:50:54;;;;;;;13.75;6.80;;;;;;;-0.81;74.54;101509.20;1693437;84;20975;-72
2021/11/16 02:53:25;;;;;;;11.90;6.58;;;;;;;-0.86;74.25;101505.73;1698858;84;20880;-71
2021/11/16 02:56:08;;;;;;;11.03;5.83;;;;;;;-0.90;74.67;101509.85;1692930;84;20903;-71
2021/11/16 02:58:35;;;;;;;13.60;6.75;;;;;;;-0.90;74.79;101510.36;1668257;84;21419;-71
2021/11/16 03:01:10;;;;;;;10.78;5.75;;;;;;;-0.92;74.59;101513.25;1695204;84;20935;-71
2021/11/16 03:03:45;;;;;;;11.12;6.17;;;;;;;-0.94;74.47;101509.91;1698646;84;21466;-70
2021/11/16 03:06:15;;;;;;;12.00;6.72;;;;;;;-0.98;74.42;101509.98;1699168;84;26785;-70
2021/11/16 03:08:45;;;;;;;14.60;6.75;;;;;;;-1.02;74.40;101502.78;1695840;84;21222;-71
2021/11/16 03:11:19;;;;;;;20.02;7.78;;;;;;;-1.01;74.52;101502.27;1690320;84;20955;-71
2021/11/16 03:13:49;;;;;;;13.83;6.35;;;;;;;-1.01;74.41;101499.06;1669656;84;20948;-70
2021/11/16 03:16:22;;;;;;;14.93;6.67;;;;;;;-1.02;74.49;101500.60;1726332;82;20982;-70
2021/11/16 03:18:59;;;;;;;17.03;7.30;;;;;;;-1.03;74.68;101505.67;1694370;84;21561;-70
2021/11/16 03:21:23;;;;;;;13.65;6.90;;;;;;;-1.01;74.63;101505.80;1722028;82;21111;-70
2021/11/16 03:23:55;;;;;;;11.88;6.45;;;;;;;-0.99;74.78;101508.31;1729509;81;21510;-70
2021/11/16 03:26:29;;;;;;;12.33;6.40;;;;;;;-1.00;74.31;101498.55;1727588;82;20983;-71
2021/11/16 03:29:01;;;;;;;11.00;6.28;;;;;;;-1.01;74.10;101495.02;1722129;82;20900;-71
2021/11/16 03:31:36;;;;;;;11.83;6.00;;;;;;;-1.05;74.09;101496.43;1715148;82;20979;-71
2021/11/16 03:34:00;;;;;;;11.63;6.83;;;;;;;-1.09;74.11;101484.87;1721458;82;21205;-71
2021/11/16 03:36:30;;;;;;;10.05;5.58;;;;;;;-1.13;74.14;101479.03;1688780;84;20935;-71
2021/11/16 03:39:02;;;;;;;12.00;6.67;;;;;;;-1.13;74.29;101486.28;1699264;84;20955;-70
2021/11/16 03:41:31;;;;;;;12.33;6.15;;;;;;;-1.12;74.33;101481.22;1698395;84;20864;-70
2021/11/16 03:44:06;;;;;;;10.63;6.00;;;;;;;-1.12;74.20;101478.52;1695223;84;20995;-71
2021/11/16 03:46:37;;;;;;;12.20;6.05;;;;;;;-1.15;74.16;101480.25;1731313;82;21845;-71
2021/11/16 03:49:12;;;;;;;10.40;5.47;;;;;;;-1.18;74.06;101482.02;1732426;82;21576;-72
2021/11/16 03:51:43;;;;;;;13.93;6.15;;;;;;;-1.20;74.21;101482.72;1727636;82;20924;-72
2021/11/16 03:54:10;;;;;;;11.50;5.58;;;;;;;-1.20;73.94;101478.67;1721736;81;20935;-72
2021/11/16 03:56:42;;;;;;;10.63;6.28;;;;;;;-1.22;74.11;101482.08;1698061;83;21475;-72
2021/11/16 03:59:13;;;;;;;11.00;6.15;;;;;;;-1.25;74.23;101477.91;1672285;84;20927;-72
2021/11/16 04:01:45;;;;;;;13.15;6.80;;;;;;;-1.23;74.39;101477.70;1697947;81;20935;-72
2021/11/16 04:04:18;;;;;;;11.85;5.97;;;;;;;-1.21;74.18;101483.74;1701512;82;20929;-73
2021/11/16 04:06:47;;;;;;;12.28;6.37;;;;;;;-1.23;74.22;101485.80;1695373;84;20971;-71
2021/11/16 04:09:21;;;;;;;10.55;5.40;;;;;;;-1.24;74.40;101484.13;1678248;83;20902;-71
2021/11/16 04:11:52;;;;;;;12.55;5.83;;;;;;;-1.25;74.31;101482.45;1699519;82;21080;-71
2021/11/16 04:14:22;;;;;;;10.13;5.70;;;;;;;-1.27;74.39;101485.34;1691592;84;21006;-72
2021/11/16 04:16:55;;;;;;;12.33;6.00;;;;;;;-1.26;74.72;101480.78;1709413;83;20948;-70
2021/11/16 04:19:26;;;;;;;10.35;5.72;;;;;;;-1.27;74.59;101471.03;1698607;84;20947;-70
2021/11/16 04:21:57;;;;;;;9.68;5.67;;;;;;;-1.30;74.26;101477.64;1692857;84;21463;-72
2021/11/16 04:24:33;;;;;;;15.80;6.20;;;;;;;-1.34;74.53;101475.84;1726751;82;21234;-72
2021/11/16 04:27:02;;;;;;;11.95;6.20;;;;;;;-1.37;74.70;101472.17;1693478;84;20912;-72
2021/11/16 04:29:36;;;;;;;10.72;5.83;;;;;;;-1.34;74.80;101475.84;1694695;84;21356;-72
2021/11/16 04:32:07;;;;;;;10.88;5.62;;;;;;;-1.32;74.72;101477.00;1719191;83;20899;-72
2021/11/16 04:34:36;;;;;;;11.53;6.25;;;;;;;-1.34;74.59;101469.10;1735330;82;20990;-72
2021/11/16 04:37:07;;;;;;;12.28;5.85;;;;;;;-1.37;74.58;101469.48;1666497;84;21160;-73
2021/11/16 04:39:36;;;;;;;10.35;5.83;;;;;;;-1.41;74.73;101469.54;1702988;82;20960;-72
2021/11/16 04:42:04;;;;;;;12.60;6.45;;;;;;;-1.45;74.73;101468.25;1732132;81;20898;-72
2021/11/16 04:44:33;;;;;;;13.25;7.40;;;;;;;-1.47;74.99;101477.03;1721515;81;20944;-72
2021/11/16 04:47:13;;;;;;;11.88;6.60;;;;;;;-1.45;75.03;101476.33;1696501;81;20891;-73
2021/11/16 04:49:47;;;;;;;13.90;6.85;;;;;;;-1.43;75.12;101476.98;1705345;82;20967;-72
2021/11/16 04:52:46;;;;;;;9.55;6.03;;;;;;;-1.42;75.13;101476.47;1705866;81;21510;-72
2021/11/16 05:03:22;;;;;;;14.90;7.78;;;;;;;-1.42;74.63;101484.55;1687470;81;20962;-70
2021/11/16 05:05:56;;;;;;;15.05;8.20;;;;;;;-1.41;74.99;101483.52;1715758;81;21446;-72
2021/11/16 05:08:23;;;;;;;13.10;8.00;;;;;;;-1.42;74.77;101484.55;1705245;82;21023;-71
2021/11/16 05:10:53;;;;;;;15.40;8.45;;;;;;;-1.42;74.70;101487.24;1704734;81;20923;-70
2021/11/16 05:13:24;;;;;;;14.35;8.43;;;;;;;-1.41;74.63;101487.56;1685552;84;20935;-70
2021/11/16 05:15:57;;;;;;;15.23;9.43;;;;;;;-1.41;74.68;101492.44;1689354;84;21184;-69
2021/11/16 05:18:27;;;;;;;18.62;9.68;;;;;;;-1.42;74.50;101481.34;1683944;82;20958;-71
2021/11/16 05:20:58;;;;;;;11.78;7.83;;;;;;;-1.44;74.54;101486.09;1682124;83;20951;-70
2021/11/16 05:23:28;;;;;;;14.65;8.68;;;;;;;-1.45;74.35;101489.80;1710735;81;20899;-71
2021/11/16 05:25:58;;;;;;;21.48;10.53;;;;;;;-1.45;74.49;101488.45;1680259;83;21333;-72
2021/11/16 05:28:28;;;;;;;21.42;9.38;;;;;;;-1.42;74.61;101482.69;1710070;81;21154;-70
2021/11/16 05:30:56;;;;;;;20.50;8.73;;;;;;;-1.37;74.70;101483.47;1729406;82;20935;-72
2021/11/16 05:33:24;;;;;;;18.17;9.70;;;;;;;-1.34;74.25;101493.35;1712729;81;20966;-70
2021/11/16 05:35:58;;;;;;;14.30;8.18;;;;;;;-1.35;74.32;101500.28;1721487;81;21008;-76
2021/11/16 05:38:24;;;;;;;15.83;8.25;;;;;;;-1.36;74.25;101495.41;1733087;81;20910;-73
2021/11/16 05:40:56;;;;;;;14.73;8.63;;;;;;;-1.36;74.12;101502.14;1750625;81;21134;-74
2021/11/16 05:43:28;;;;;;;19.70;8.95;;;;;;;-1.37;74.25;101499.63;1695058;81;20915;-71
2021/11/16 05:45:57;;;;;;;12.85;7.97;;;;;;;-1.33;74.41;101499.58;1703872;81;20923;-70
2021/11/16 05:48:28;;;;;;;14.10;8.05;;;;;;;-1.28;74.59;101503.05;1693268;81;20978;-74
2021/11/16 05:50:56;;;;;;;13.63;7.40;;;;;;;-1.25;74.31;101504.02;1724455;81;20963;-71
2021/11/16 05:53:31;;;;;;;11.55;6.92;;;;;;;-1.24;74.27;101505.17;1696108;81;21127;-71
2021/11/16 05:55:59;;;;;;;14.78;8.00;;;;;;;-1.22;74.29;101507.67;1732580;81;28536;-72
2021/11/16 05:58:31;;;;;;;15.38;7.05;;;;;;;-1.21;74.33;101506.14;1721374;83;21502;-73
2021/11/16 06:01:06;;;;;;;16.57;7.03;;;;;;;-1.17;74.33;101503.38;1698728;82;20974;-71
2021/11/16 06:03:36;;;;;;;16.70;7.97;;;;;;;-1.11;74.24;101504.45;1727521;82;20915;-70
2021/11/16 06:06:10;;;;;;;15.25;8.95;;;;;;;-1.10;74.33;101508.81;1723039;82;21214;-69
2021/11/16 06:08:40;;;;;;;16.17;7.97;;;;;;;-1.09;73.97;101510.48;1719750;82;20963;-80
2021/11/16 06:11:11;;;;;;;17.82;9.30;;;;;;;-1.10;73.56;101507.47;1695110;83;20919;-79
2021/11/16 06:13:40;;;;;;;23.35;8.83;;;;;;;-1.12;73.77;101514.91;1718077;82;20907;-72
2021/11/16 06:16:11;;;;;;;13.43;8.10;;;;;;;-1.12;73.71;101508.17;1698955;84;20915;-73
2021/11/16 06:18:52;;;;;;;16.80;8.53;;;;;;;-1.13;74.28;101506.50;1697257;84;21106;-80
2021/11/16 06:21:32;;;;;;;16.93;8.80;;;;;;;-1.13;74.01;101506.50;1693632;83;20907;-74
2021/11/16 06:23:53;;;;;;;15.65;8.03;;;;;;;-1.12;74.03;101496.88;1709987;82;20981;-81
2021/11/16 06:26:26;;;;;;;24.80;9.23;;;;;;;-1.07;74.02;101504.38;1700459;82;20954;-82
2021/11/16 06:28:59;;;;;;;14.73;9.25;;;;;;;-1.04;74.05;101509.39;1726853;82;20903;-79
2021/11/16 06:31:31;;;;;;;21.70;8.83;;;;;;;-1.00;74.11;101500.73;1673319;84;20908;-78
2021/11/16 06:34:03;;;;;;;15.88;8.25;;;;;;;-0.92;75.77;101495.73;1667173;84;20920;-78
2021/11/16 06:36:35;;;;;;;13.62;7.70;;;;;;;-0.84;73.96;101490.20;1698695;82;20879;-83
2021/11/16 06:39:11;;;;;;;14.70;8.20;;;;;;;-0.85;73.47;101501.19;1676321;82;20970;-76
2021/11/16 06:41:42;;;;;;;16.40;7.67;;;;;;;-0.86;73.28;101497.66;1707045;81;20956;-77
2021/11/16 06:44:14;;;;;;;14.83;7.75;;;;;;;-0.90;73.03;101490.98;1703612;82;21518;-76
2021/11/16 06:46:44;;;;;;;14.30;8.03;;;;;;;-0.91;73.09;101489.30;1711834;81;20907;-73
2021/11/16 06:49:14;;;;;;;18.75;10.85;;;;;;;-0.89;73.58;101494.51;1713364;81;21039;-75
2021/11/16 06:51:45;;;;;;;14.47;8.80;;;;;;;-0.82;73.73;101484.62;1697149;82;20999;-69
2021/11/16 06:54:22;;;;;;;15.35;9.50;;;;;;;-0.79;73.07;101486.92;1724521;81;20976;-70
2021/11/16 06:56:52;;;;;;;17.00;8.88;;;;;;;-0.82;73.11;101488.15;1705315;82;21326;-68
2021/11/16 06:59:25;;;;;;;16.05;7.85;;;;;;;-0.82;73.14;101492.19;1714446;81;21534;-72
2021/11/16 07:01:55;;;;;;;11.85;7.55;;;;;;;-0.81;72.97;101488.47;1720322;81;20955;-70
2021/11/16 07:04:24;;;;;;;32.55;14.10;;;;;;;-0.76;73.15;101483.84;1714536;83;21491;-71
2021/11/16 07:06:59;;;;;;;23.38;11.45;;;;;;;-0.72;73.13;101477.86;1718866;81;21003;-70
2021/11/16 07:09:29;;;;;;;18.15;9.03;;;;;;;-0.63;73.20;101475.03;1717538;82;21823;-71
2021/11/16 07:11:59;;;;;;;19.17;9.80;;;;;;;-0.53;72.81;101488.47;1666488;84;20953;-72
2021/11/16 07:14:36;;;;;;;17.92;9.73;;;;;;;-0.53;72.07;101480.89;1725291;82;20959;-69
2021/11/16 07:17:07;;;;;;;15.50;9.13;;;;;;;-0.59;72.01;101479.84;1720889;82;21599;-69
2021/11/16 07:19:55;;;;;;;25.43;10.88;;;;;;;-0.63;72.07;101477.73;1699296;83;21068;-66
2021/11/16 07:22:33;;;;;;;12.50;8.25;;;;;;;-0.61;72.38;101478.36;1720976;82;21776;-74
2021/11/16 07:25:16;;;;;;;19.77;10.63;;;;;;;-0.60;72.19;101481.38;1719177;82;21446;-71
2021/11/16 07:27:59;;;;;;;17.52;8.65;;;;;;;-0.58;74.68;101474.77;1722291;82;20877;-72
2021/11/16 07:30:25;;;;;;;16.82;9.05;;;;;;;-0.50;72.78;101477.80;1720117;82;21024;-75
2021/11/16 07:32:59;;;;;;;23.67;11.68;;;;;;;-0.46;73.09;101476.38;1721351;82;20885;-75
2021/11/16 07:35:38;;;;;;;30.25;13.75;;;;;;;-0.41;72.20;101473.92;1702377;82;20912;-70
2021/11/16 07:38:09;;;;;;;23.22;10.32;;;;;;;-0.40;72.28;101475.08;1723950;82;20905;-70
2021/11/16 07:40:41;;;;;;;27.30;13.85;;;;;;;-0.41;71.83;101476.63;1723871;82;20956;-69
2021/11/16 07:43:21;;;;;;;17.52;9.55;;;;;;;-0.39;71.86;101467.30;1699962;82;20943;-72
2021/11/16 07:45:55;;;;;;;19.42;10.20;;;;;;;-0.34;71.64;101474.80;1690806;81;25010;-73
2021/11/16 07:48:25;;;;;;;18.23;9.18;;;;;;;-0.31;71.85;101479.81;1692282;82;21239;-71
2021/11/16 07:50:57;;;;;;;20.30;9.25;;;;;;;-0.29;71.43;101478.27;1720958;82;20903;-69
2021/11/16 07:53:40;;;;;;;17.67;8.53;;;;;;;-0.26;71.12;101480.56;1695345;84;20935;-72
2021/11/16 07:56:13;;;;;;;27.52;10.88;;;;;;;-0.25;71.32;101472.79;1664814;84;20956;-81
2021/11/16 07:58:58;;;;;;;21.82;11.57;;;;;;;-0.24;70.75;101471.76;1731586;82;20926;-68
2021/11/16 08:05:03;;;;;;;17.17;8.75;;;;;;;-0.28;70.91;101467.27;1696534;84;21490;-73
2021/11/16 08:07:10;;;;;;;20.00;9.98;;;;;;;-0.25;71.03;101456.59;1672439;84;21461;-73
2021/11/16 08:15:01;;;;;;;17.05;8.73;;;;;;;-0.09;70.68;101458.46;1731044;82;21487;-72
2021/11/16 08:17:32;;;;;;;14.55;8.50;;;;;;;0.03;70.18;101453.30;1727246;82;21475;-70
2021/11/16 08:20:09;;;;;;;22.80;11.55;;;;;;;0.24;69.77;101450.50;1719746;82;20998;-70
2021/11/16 08:22:41;;;;;;;16.23;8.63;;;;;;;0.62;69.33;101456.21;1662691;83;21110;-71
2021/11/16 08:25:15;;;;;;;16.57;8.20;;;;;;;1.04;67.57;101445.27;1695638;84;20943;-71
2021/11/16 08:27:44;;;;;;;13.78;8.15;;;;;;;1.36;67.00;101455.23;1693776;84;21163;-72
2021/11/16 08:30:23;;;;;;;31.23;13.65;;;;;;;1.59;65.56;101445.34;1673090;84;28082;-74
2021/11/16 08:33:01;;;;;;;29.52;13.53;;;;;;;1.72;65.37;101443.96;1732069;81;20876;-73
2021/11/16 08:35:32;;;;;;;40.65;23.02;;;;;;;1.77;63.48;101442.77;1718229;82;20956;-74
2021/11/16 08:38:07;;;;;;;20.55;10.90;;;;;;;1.57;64.02;101440.13;1697781;84;20884;-71
2021/11/16 08:40:39;;;;;;;19.62;9.33;;;;;;;1.49;64.27;101451.69;1697401;84;21148;-73
2021/11/16 08:43:15;;;;;;;33.38;16.80;;;;;;;1.40;64.77;101448.37;1697474;84;20920;-74
2021/11/16 08:45:49;;;;;;;21.70;9.40;;;;;;;1.48;65.09;101444.62;1697969;84;20927;-77
2021/11/16 08:48:25;;;;;;;22.52;10.48;;;;;;;1.53;64.50;101443.47;1669158;84;20929;-79
2021/11/16 08:51:03;;;;;;;13.88;8.15;;;;;;;1.54;64.58;101439.72;1739904;81;20947;-71
2021/11/16 08:53:38;;;;;;;13.90;7.50;;;;;;;1.50;63.67;101447.42;1731918;83;21130;-71
2021/11/16 08:56:15;;;;;;;13.43;8.03;;;;;;;1.33;64.17;101445.66;1728085;82;21436;-75
2021/11/16 08:58:48;;;;;;;15.00;8.00;;;;;;;1.19;64.30;101450.77;1711214;82;20996;-71
2021/11/16 09:01:16;;;;;;;20.17;8.93;;;;;;;1.07;64.55;101440.27;1729868;82;26754;-75
2021/11/16 09:03:46;;;;;;;21.07;8.60;;;;;;;0.94;65.26;101434.85;1730094;81;21522;-75
2021/11/16 09:06:22;;;;;;;24.40;8.98;;;;;;;0.86;65.91;101431.00;1713119;82;21119;-72
2021/11/16 09:09:05;;;;;;;17.57;10.13;;;;;;;0.87;66.42;101424.55;1697410;83;21060;-75
2021/11/16 09:11:32;;;;;;;22.75;11.80;;;;;;;0.99;66.07;101423.73;1724985;81;21472;-74
2021/11/16 09:14:03;;;;;;;31.45;13.93;;;;;;;1.08;66.01;101420.30;1719004;83;21397;-74
2021/11/16 09:16:30;;;;;;;14.53;8.73;;;;;;;1.28;65.66;101414.86;1681403;82;20977;-72
2021/11/16 09:18:58;;;;;;;15.28;8.83;;;;;;;1.36;64.50;101412.46;1725811;81;21100;-76
2021/11/16 09:21:29;;;;;;;23.12;10.03;;;;;;;1.30;64.76;101416.31;1725087;82;20897;-73
2021/11/16 09:24:05;;;;;;;17.27;9.78;;;;;;;1.26;64.66;101406.95;1726624;82;20919;-72
2021/11/16 09:27:42;;;;;;;18.65;10.20;;;;;;;1.19;64.92;101406.13;1698730;84;21554;-70
2021/11/16 09:29:22;;;;;;;14.83;9.63;;;;;;;1.09;65.13;101403.55;1670686;84;20927;-71
2021/11/16 09:32:14;;;;;;;16.55;10.65;;;;;;;1.02;65.35;101406.78;1698095;83;21137;-71
2021/11/16 09:34:47;;;;;;;15.43;9.58;;;;;;;0.99;65.63;101397.20;1694126;84;21345;-65
2021/11/16 09:37:22;;;;;;;17.17;10.05;;;;;;;1.12;65.64;101402.62;1691655;84;21483;-69
2021/11/16 09:39:54;;;;;;;18.70;11.50;;;;;;;1.27;64.99;101386.97;1690585;84;20892;-67
2021/11/16 09:42:32;;;;;;;19.97;12.00;;;;;;;1.47;64.99;101392.36;1693539;84;20912;-68
2021/11/16 09:45:10;;;;;;;20.88;10.65;;;;;;;1.65;64.36;101388.47;1697679;84;21208;-67
2021/11/16 09:47:39;;;;;;;17.27;10.50;;;;;;;1.70;63.27;101392.42;1698933;83;20891;-67
2021/11/16 09:50:13;;;;;;;18.85;11.30;;;;;;;1.49;63.56;101388.09;1700216;84;20907;-66
2021/11/16 09:52:51;;;;;;;21.65;10.60;;;;;;;1.27;63.94;101389.67;1698473;84;20908;-66
2021/11/16 09:55:19;;;;;;;18.77;11.70;;;;;;;1.10;64.57;101384.41;1694195;84;21482;-68
2021/11/16 09:57:53;;;;;;;18.75;11.90;;;;;;;1.01;65.07;101382.95;1698831;84;21815;-67
2021/11/16 10:00:27;;;;;;;23.62;13.53;;;;;;;0.97;65.60;101381.19;1698648;84;20891;-67
2021/11/16 10:03:14;;;;;;;18.32;11.70;;;;;;;1.03;65.76;101373.28;1667595;85;21458;-67
2021/11/16 10:05:45;;;;;;;22.02;12.55;;;;;;;1.12;65.59;101367.45;1719412;83;20931;-67
2021/11/16 10:08:12;;;;;;;22.53;12.77;;;;;;;1.20;65.23;101375.33;1732500;82;21442;-70
2021/11/16 10:10:42;;;;;;;20.80;12.40;;;;;;;1.36;65.38;101371.88;1727399;82;21435;-71
2021/11/16 10:13:11;;;;;;;19.27;10.80;;;;;;;1.86;65.43;101364.84;1718731;82;20895;-64
2021/11/16 10:15:45;;;;;;;17.80;10.75;;;;;;;2.19;61.98;101368.77;1718042;82;20896;-67
2021/11/16 10:18:12;;;;;;;26.62;12.73;;;;;;;2.03;62.55;101367.91;1700434;81;20993;-65
2021/11/16 10:20:42;;;;;;;19.42;11.57;;;;;;;1.91;62.64;101366.39;1717604;81;21450;-74
2021/11/16 10:23:11;;;;;;;20.15;11.20;;;;;;;1.73;62.92;101361.69;1723762;81;22360;-72
2021/11/16 10:25:43;;;;;;;25.55;12.73;;;;;;;1.49;63.41;101357.80;1729067;81;21454;-72
2021/11/16 10:28:11;;;;;;;21.15;11.68;;;;;;;1.27;64.00;101354.50;1688976;82;34438;-72
2021/11/16 10:30:38;;;;;;;20.17;10.93;;;;;;;1.11;64.80;101345.50;1708065;79;20951;-72
2021/11/16 10:33:20;;;;;;;15.93;10.15;;;;;;;1.15;65.27;101345.39;1719153;81;20935;-65
2021/11/16 10:36:02;;;;;;;16.50;10.18;;;;;;;1.39;66.16;101343.87;1731432;81;21225;-68
2021/11/16 10:38:32;;;;;;;22.48;9.98;;;;;;;1.87;65.20;101334.00;1694781;84;20954;-66
2021/11/16 10:41:02;;;;;;;20.12;9.98;;;;;;;2.22;64.17;101339.88;1711234;81;21004;-67
2021/11/16 10:43:52;;;;;;;17.75;10.35;;;;;;;2.23;62.65;101341.55;1712372;81;21032;-67
2021/11/16 10:46:20;;;;;;;19.92;10.70;;;;;;;2.03;62.29;101333.52;1717646;81;20939;-67
2021/11/16 10:48:51;;;;;;;18.20;10.72;;;;;;;1.79;62.70;101336.95;1729128;81;21459;-73
2021/11/16 10:51:17;;;;;;;23.00;11.48;;;;;;;1.69;63.00;101332.55;1693458;81;20916;-72
2021/11/16 10:53:52;;;;;;;21.00;10.85;;;;;;;1.61;63.52;101329.03;1708264;81;21537;-69
2021/11/16 10:56:22;;;;;;;20.75;10.40;;;;;;;1.50;63.51;101318.03;1724315;81;21006;-72
2021/11/16 10:58:49;;;;;;;26.33;13.45;;;;;;;1.29;65.02;101318.59;1723223;81;20927;-75
2021/11/16 11:01:23;;;;;;;17.77;10.25;;;;;;;1.25;65.24;101312.47;1708735;80;21188;-73
2021/11/16 11:03:54;;;;;;;22.65;10.25;;;;;;;1.30;65.39;101309.44;1693863;83;20931;-72
2021/11/16 11:06:32;;;;;;;20.60;9.53;;;;;;;1.34;65.24;101307.14;1720159;81;20905;-68
2021/11/16 11:09:02;;;;;;;20.90;10.25;;;;;;;1.36;65.15;101307.76;1702592;81;20973;-73
2021/11/16 11:11:42;;;;;;;14.93;8.70;;;;;;;1.29;64.95;101305.06;1701041;82;21137;-69
2021/11/16 11:14:17;;;;;;;27.40;10.68;;;;;;;1.23;65.01;101301.86;1720376;81;21885;-71
2021/11/16 11:16:54;;;;;;;19.45;9.30;;;;;;;1.10;65.23;101296.50;1721331;81;20954;-66
2021/11/16 11:19:32;;;;;;;20.92;9.13;;;;;;;1.03;65.78;101292.98;1697890;81;20974;-70
2021/11/16 11:24:58;;;;;;;15.72;8.70;;;;;;;0.90;66.61;101289.77;1693718;82;21401;-67
2021/11/16 11:27:38;;;;;;;;;;;;;;;0.96;66.85;101293.50;1708944;82;21909;-74
2021/11/16 11:30:08;;;;;;;16.73;8.95;;;;;;;1.03;66.98;101292.98;1719860;81;20085;-69
2021/11/16 11:32:38;;;;;;;20.05;10.18;;;;;;;1.06;66.98;101287.14;1717779;83;21475;-69
2021/11/16 11:35:16;;;;;;;20.30;9.85;;;;;;;1.09;66.96;101293.48;1720424;81;20923;-70
2021/11/16 11:38:01;;;;;;;24.32;11.55;;;;;;;1.09;66.96;101294.84;1722727;82;20864;-67
2021/11/16 11:40:40;;;;;;;20.72;10.53;;;;;;;1.08;66.95;101292.34;1672487;82;21434;-68
2021/11/16 11:43:15;;;;;;;18.87;9.50;;;;;;;1.01;66.74;101284.77;1729653;81;20923;-73
2021/11/16 11:45:46;;;;;;;16.10;8.95;;;;;;;0.96;67.04;101286.22;1734680;80;20923;-70
2021/11/16 11:48:19;;;;;;;14.80;8.43;;;;;;;0.85;66.89;101279.27;1727020;81;20866;-70
2021/11/16 11:50:53;;;;;;;25.23;12.30;;;;;;;0.79;67.36;101272.00;1716945;83;20953;-70
2021/11/16 11:53:25;;;;;;;29.10;12.82;;;;;;;0.79;67.66;101267.94;1703044;82;20935;-71
2021/11/16 11:55:57;;;;;;;26.07;11.95;;;;;;;0.77;67.78;101265.97;1726288;83;20882;-71
2021/11/16 11:58:34;;;;;;;17.37;9.63;;;;;;;0.78;68.20;101266.27;1701590;83;20888;-73
2021/11/16 12:01:09;;;;;;;16.20;9.38;;;;;;;0.79;68.07;101265.23;1729284;81;20971;-71
2021/11/16 12:03:42;;;;;;;17.45;10.13;;;;;;;0.82;67.81;101267.52;1688856;82;20940;-70